Time;durP1;ratioP1;P1;durP2;ratioP2;P2;SDS_P1;SDS_P2;PMS_P1;PMS_P2;Temp;Humidity;BMP_temperature;BMP_pressure;BME280_temperature;BME280_humidity;BME280_pressure;Samples;Min_cycle;Max_cycle;Signal;HPM_P1;HPM_P2
2022/04/12 00:05:52;;;;;;;5.50;2.12;;;10.60;92.90;;;;;;6728128;88;20181;-78
2022/04/12 00:15:53;;;;;;;3.83;2.08;;;10.60;93.00;;;;;;6731148;88;20194;-80
2022/04/12 01:26:16;;;;;;;4.78;2.10;;;10.50;93.80;;;;;;6742317;88;20201;-79
2022/04/12 01:56:44;;;;;;;6.32;2.58;;;10.60;93.50;;;;;;6788442;76;20196;-79
2022/04/12 02:06:45;;;;;;;6.65;2.40;;;10.70;93.40;;;;;;6682308;88;20195;-79
2022/04/12 02:16:45;;;;;;;5.85;2.40;;;10.70;93.30;;;;;;6677634;89;20202;-79
2022/04/12 02:26:46;;;;;;;5.82;2.10;;;10.80;93.20;;;;;;6677026;89;20174;-79
2022/04/12 02:36:47;;;;;;;4.40;2.30;;;10.80;93.30;;;;;;6677166;89;20312;-79
2022/04/12 02:46:47;;;;;;;3.75;2.28;;;10.90;93.30;;;;;;6708928;88;20169;-81
2022/04/12 02:56:48;;;;;;;4.93;2.30;;;10.80;93.60;;;;;;6675552;88;20666;-79
2022/04/12 03:06:48;;;;;;;4.93;2.35;;;10.80;93.60;;;;;;6676447;89;20217;-79
2022/04/12 03:16:49;;;;;;;5.57;2.75;;;10.80;93.80;;;;;;6676153;89;20243;-79
2022/04/12 03:26:50;;;;;;;6.12;2.62;;;10.80;93.90;;;;;;6676211;89;20212;-79
2022/04/12 03:36:50;;;;;;;5.15;2.58;;;10.70;94.10;;;;;;6676351;89;20212;-79
2022/04/12 03:46:51;;;;;;;7.93;3.25;;;10.70;94.40;;;;;;6676484;89;20203;-79
2022/04/12 03:56:51;;;;;;;6.25;2.97;;;10.70;94.50;;;;;;6676464;89;20210;-79
2022/04/12 04:06:52;;;;;;;7.10;2.67;;;10.60;95.50;;;;;;6673008;89;20221;-79
2022/04/12 04:16:52;;;;;;;6.62;2.78;;;10.50;95.80;;;;;;6673071;89;20202;-79
2022/04/12 04:26:55;;;;;;;7.10;2.77;;;10.50;95.80;;;;;;6676503;89;20231;-79
2022/04/12 04:36:55;;;;;;;6.35;2.80;;;10.40;96.20;;;;;;6675841;89;21100;-79
2022/04/12 04:46:56;;;;;;;5.82;2.70;;;10.30;96.70;;;;;;6675864;89;20226;-79
2022/04/12 04:56:56;;;;;;;8.05;2.80;;;10.40;96.70;;;;;;6672804;88;20203;-79
2022/04/12 05:06:57;;;;;;;7.22;2.70;;;10.30;97.20;;;;;;6675595;89;20256;-79
2022/04/12 05:16:57;;;;;;;6.82;2.90;;;10.30;97.10;;;;;;6674506;88;20327;-79
2022/04/12 05:26:58;;;;;;;6.10;2.95;;;10.20;97.80;;;;;;6760088;88;20258;-79
2022/04/12 05:36:58;;;;;;;5.30;2.67;;;10.10;98.10;;;;;;6763671;88;20263;-79
2022/04/12 05:47:00;;;;;;;6.30;2.60;;;10.30;97.60;;;;;;6765001;88;20709;-79
2022/04/12 05:57:01;;;;;;;5.85;3.00;;;10.40;97.20;;;;;;6768469;88;20180;-79
2022/04/12 06:07:01;;;;;;;5.53;2.37;;;10.60;97.10;;;;;;6769160;88;20204;-79
2022/04/12 06:17:02;;;;;;;7.57;3.10;;;10.90;96.70;;;;;;6762601;88;20180;-80
2022/04/12 06:27:03;;;;;;;8.07;3.17;;;11.20;96.20;;;;;;6745094;88;20745;-80
2022/04/12 06:37:03;;;;;;;5.37;2.87;;;11.40;95.60;;;;;;6723455;88;20671;-80
2022/04/12 06:47:04;;;;;;;4.07;2.58;;;11.70;95.20;;;;;;6648002;88;20623;-79
2022/04/12 06:57:05;;;;;;;7.50;2.92;;;11.80;94.90;;;;;;6673371;89;20229;-79
2022/04/12 07:07:06;;;;;;;6.37;2.92;;;12.00;94.80;;;;;;6677238;89;20327;-80
2022/04/12 07:17:06;;;;;;;10.77;3.15;;;12.20;94.50;;;;;;6678325;89;20323;-79
2022/04/12 07:27:07;;;;;;;8.80;3.30;;;12.50;94.40;;;;;;6678790;89;20328;-80
2022/04/12 07:37:08;;;;;;;8.38;3.30;;;12.60;94.00;;;;;;6682567;89;20605;-78
2022/04/12 07:47:09;;;;;;;6.18;3.05;;;12.80;93.70;;;;;;6682264;89;20176;-79
2022/04/12 07:57:09;;;;;;;5.97;3.08;;;13.30;93.30;;;;;;6677455;89;20191;-78
2022/04/12 08:07:10;;;;;;;5.95;3.08;;;13.40;93.00;;;;;;6676113;89;20275;-81
2022/04/12 08:17:10;;;;;;;6.07;2.97;;;13.70;92.60;;;;;;6671641;89;20202;-79
2022/04/12 08:27:13;;;;;;;6.87;2.80;;;14.10;92.10;;;;;;6670435;89;20567;-79
2022/04/12 08:37:13;;;;;;;4.97;2.67;;;14.40;91.80;;;;;;6674204;89;20204;-80
2022/04/12 08:47:16;;;;;;;7.15;2.83;;;14.80;91.80;;;;;;6670070;88;20207;-79
2022/04/12 08:57:17;;;;;;;5.05;2.53;;;15.60;90.30;;;;;;6673305;89;20240;-79
2022/04/12 09:07:25;;;;;;;6.60;2.58;;;15.90;89.80;;;;;;6678303;89;20260;-79
2022/04/12 09:17:37;;;;;;;5.03;2.58;;;16.80;87.50;;;;;;6678420;89;20648;-79
2022/04/12 09:27:39;;;;;;;5.47;2.42;;;16.90;86.30;;;;;;6679569;89;20218;-80
2022/04/12 09:37:42;;;;;;;7.30;2.72;;;17.60;85.30;;;;;;6673962;88;20239;-80
2022/04/12 09:47:44;;;;;;;6.78;2.70;;;18.00;84.40;;;;;;6661930;89;20233;-80
2022/04/12 09:57:45;;;;;;;5.90;2.60;;;18.10;83.70;;;;;;6711434;88;20239;-79
2022/04/12 10:07:46;;;;;;;6.60;2.22;;;17.90;82.90;;;;;;6662068;88;20616;-80
2022/04/12 10:17:48;;;;;;;3.08;1.55;;;18.20;82.20;;;;;;6657666;89;20720;-80
2022/04/12 10:28:07;;;;;;;3.80;1.77;;;18.80;79.50;;;;;;6661823;89;20276;-79
2022/04/12 10:38:09;;;;;;;3.35;1.92;;;19.10;77.80;;;;;;6658570;89;20239;-79
2022/04/12 10:48:21;;;;;;;4.05;1.90;;;19.50;77.10;;;;;;6660999;89;20234;-79
2022/04/12 10:58:33;;;;;;;4.32;1.65;;;20.00;76.40;;;;;;6660682;89;20184;-79
2022/04/12 11:08:33;;;;;;;6.07;1.98;;;20.70;76.00;;;;;;6661974;88;20194;-79
2022/04/12 11:18:50;;;;;;;4.82;1.90;;;20.60;74.70;;;;;;6660858;89;20238;-79
2022/04/12 11:28:51;;;;;;;3.75;1.77;;;21.10;76.40;;;;;;6654922;89;20716;-80
2022/04/12 11:38:51;;;;;;;3.53;1.70;;;21.60;74.00;;;;;;6652291;89;20199;-79
2022/04/12 11:49:06;;;;;;;3.28;1.40;;;21.90;73.40;;;;;;6656293;89;20653;-79
2022/04/12 11:59:08;;;;;;;6.18;1.10;;;22.20;73.10;;;;;;6656416;89;20215;-80
2022/04/12 12:09:15;;;;;;;2.33;1.30;;;22.10;71.40;;;;;;6659720;89;20226;-81
2022/04/12 12:19:20;;;;;;;3.17;1.20;;;22.20;71.40;;;;;;6658602;89;20205;-80
2022/04/12 12:29:22;;;;;;;3.33;1.00;;;22.40;70.80;;;;;;6657113;89;20313;-80
2022/04/12 12:39:26;;;;;;;3.83;1.52;;;22.70;70.90;;;;;;6656342;89;20199;-81
2022/04/12 12:49:35;;;;;;;5.97;1.10;;;22.90;70.80;;;;;;6655242;89;20366;-80
2022/04/12 12:59:37;;;;;;;3.75;1.00;;;22.70;70.30;;;;;;6656043;89;20210;-80
2022/04/12 13:09:48;;;;;;;4.32;1.23;;;22.60;70.30;;;;;;6658908;89;20212;-80
2022/04/12 13:19:49;;;;;;;5.00;1.00;;;22.70;71.40;;;;;;6658562;89;20277;-79
2022/04/12 13:29:50;;;;;;;2.33;1.30;;;23.10;71.00;;;;;;6657099;89;20683;-79
2022/04/12 13:39:51;;;;;;;2.62;1.30;;;23.40;70.10;;;;;;6654418;89;20228;-80
2022/04/12 13:49:51;;;;;;;3.40;1.23;;;23.50;70.00;;;;;;6657485;89;20199;-80
2022/04/12 13:59:52;;;;;;;2.72;1.20;;;23.50;69.60;;;;;;6657187;89;20823;-79
2022/04/12 14:09:55;;;;;;;2.73;1.13;;;23.60;69.30;;;;;;6664259;89;20214;-81
2022/04/12 14:19:55;;;;;;;5.85;1.10;;;23.90;69.10;;;;;;6660267;88;20206;-80
2022/04/12 14:29:56;;;;;;;3.60;1.33;;;24.00;68.90;;;;;;6656853;89;20203;-80
2022/04/12 14:39:57;;;;;;;4.93;1.40;;;23.70;69.30;;;;;;6662311;89;20200;-80
2022/04/12 14:49:58;;;;;;;3.20;1.30;;;24.10;68.70;;;;;;6661818;89;20731;-80
2022/04/12 14:59:59;;;;;;;2.50;1.30;;;23.70;69.70;;;;;;6664909;89;20218;-81
2022/04/12 15:10:02;;;;;;;3.97;1.48;;;23.90;69.60;;;;;;6664691;89;20614;-80
2022/04/12 15:20:04;;;;;;;3.50;1.40;;;23.60;69.70;;;;;;6658918;89;20312;-80
2022/04/12 15:30:10;;;;;;;4.22;1.70;;;23.80;69.60;;;;;;6657706;89;20223;-81
2022/04/12 15:40:11;;;;;;;2.42;1.30;;;23.70;69.80;;;;;;6663065;89;20173;-81
2022/04/12 15:50:12;;;;;;;5.35;1.40;;;23.60;70.60;;;;;;6668685;89;20201;-80
2022/04/12 16:00:15;;;;;;;6.45;1.30;;;23.70;70.70;;;;;;6663904;89;20602;-81
2022/04/12 16:10:16;;;;;;;2.83;1.50;;;23.40;70.30;;;;;;6659910;89;20339;-80
2022/04/12 16:20:17;;;;;;;3.20;1.17;;;23.30;70.00;;;;;;6657197;89;20199;-80
2022/04/12 16:30:19;;;;;;;4.28;1.40;;;23.20;70.20;;;;;;6668973;88;20318;-81
2022/04/12 16:40:19;;;;;;;5.20;1.60;;;23.10;70.30;;;;;;6668533;88;20664;-80
2022/04/12 16:50:21;;;;;;;4.07;1.30;;;22.90;70.70;;;;;;6724695;88;20258;-81
2022/04/12 17:00:23;;;;;;;3.72;1.37;;;22.70;71.00;;;;;;6655257;89;20200;-79
2022/04/12 17:10:24;;;;;;;3.28;1.12;;;22.50;71.60;;;;;;6650011;89;20212;-79
2022/04/12 17:20:25;;;;;;;5.57;1.50;;;22.20;71.80;;;;;;6670804;89;20955;-77
2022/04/12 17:30:25;;;;;;;4.20;1.27;;;22.00;71.70;;;;;;6655447;89;20195;-78
2022/04/12 17:40:26;;;;;;;4.95;1.40;;;21.80;72.00;;;;;;6672195;89;20339;-78
2022/04/12 17:50:27;;;;;;;3.60;1.50;;;21.60;72.50;;;;;;6685551;88;20202;-81
2022/04/12 18:00:27;;;;;;;6.00;1.50;;;21.30;73.30;;;;;;6689980;87;20970;-81
2022/04/12 18:10:28;;;;;;;4.60;1.25;;;21.10;74.60;;;;;;6679056;87;20188;-80
2022/04/12 18:20:29;;;;;;;2.47;1.25;;;20.80;75.20;;;;;;6681735;87;20224;-84
2022/04/12 18:30:30;;;;;;;3.67;1.37;;;20.50;75.60;;;;;;6698031;87;20217;-79
2022/04/12 18:40:31;;;;;;;2.45;1.35;;;20.30;76.00;;;;;;6697705;87;20225;-79
2022/04/12 19:00:35;;;;;;;7.12;2.62;;;20.20;76.50;;;;;;6765936;88;21056;-79
2022/04/12 19:10:38;;;;;;;10.77;4.20;;;20.00;77.20;;;;;;6748876;88;20349;-79
2022/04/12 19:20:42;;;;;;;4.05;1.95;;;19.80;78.30;;;;;;6662294;88;20165;-80
2022/04/12 19:30:42;;;;;;;5.30;2.05;;;19.30;79.80;;;;;;6661511;88;20175;-80
2022/04/12 19:40:43;;;;;;;8.77;3.10;;;19.30;80.10;;;;;;6698579;88;20172;-82
2022/04/12 19:50:44;;;;;;;3.97;2.17;;;18.90;82.20;;;;;;6767454;88;20785;-81
2022/04/12 20:00:44;;;;;;;3.50;1.90;;;18.70;82.00;;;;;;6742437;77;20637;-80
2022/04/12 20:10:45;;;;;;;5.10;1.90;;;18.90;82.90;;;;;;6752807;88;20210;-80
2022/04/12 20:20:45;;;;;;;4.05;1.87;;;19.00;82.30;;;;;;6731858;88;20207;-79
2022/04/12 20:30:46;;;;;;;7.45;2.00;;;18.80;82.70;;;;;;6726124;88;20233;-80
2022/04/12 20:40:51;;;;;;;4.85;2.40;;;18.70;83.60;;;;;;6736619;88;20350;-80
2022/04/12 20:50:51;;;;;;;6.17;2.40;;;18.20;86.00;;;;;;6737349;88;20214;-79
2022/04/12 21:00:52;;;;;;;6.15;2.50;;;17.90;87.60;;;;;;6746569;88;20501;-79
2022/04/12 21:10:53;;;;;;;8.20;3.03;;;17.50;89.10;;;;;;6743836;88;20209;-79
2022/04/12 21:20:54;;;;;;;4.47;2.72;;;17.20;90.40;;;;;;6706480;88;20614;-78
2022/04/12 21:30:54;;;;;;;4.37;3.15;;;16.90;91.40;;;;;;6751026;88;20196;-78
2022/04/12 21:40:55;;;;;;;7.50;2.95;;;16.40;93.10;;;;;;6767621;88;20196;-79
2022/04/12 21:50:56;;;;;;;6.87;3.00;;;16.20;95.20;;;;;;6763728;88;20205;-79
2022/04/12 22:00:57;;;;;;;5.72;2.72;;;15.80;97.30;;;;;;6767680;88;20208;-79
2022/04/12 22:10:58;;;;;;;5.25;2.45;;;15.70;98.20;;;;;;6767880;88;20164;-79
2022/04/12 22:20:58;;;;;;;5.57;2.55;;;16.00;97.90;;;;;;6726573;88;20263;-79
2022/04/12 22:30:59;;;;;;;5.45;2.50;;;15.90;98.20;;;;;;6729160;88;20169;-80
2022/04/12 22:41:00;;;;;;;5.10;2.62;;;15.70;99.50;;;;;;6767654;88;20200;-80
2022/04/12 22:51:00;;;;;;;6.30;2.80;;;15.30;99.90;;;;;;6767638;88;20208;-79
2022/04/12 23:01:01;;;;;;;7.60;2.95;;;15.20;99.90;;;;;;6767079;87;20554;-80
2022/04/12 23:11:01;;;;;;;5.57;2.70;;;14.90;99.90;;;;;;6677617;88;20218;-79
2022/04/12 23:21:02;;;;;;;5.72;2.70;;;14.50;99.90;;;;;;6729551;88;20259;-79
2022/04/12 23:31:02;;;;;;;6.72;3.10;;;14.20;99.90;;;;;;6750418;88;20641;-80
2022/04/12 23:41:03;;;;;;;7.95;3.15;;;14.10;99.90;;;;;;6749088;88;20203;-79
2022/04/12 23:51:03;;;;;;;6.97;2.83;;;14.40;99.90;;;;;;6762986;88;20284;-79
